createdAt,value
2018-08-17T00:01:06.629Z,16.23
2018-08-17T00:03:41.916Z,17.20
2018-08-17T00:06:17.516Z,17.80
2018-08-17T00:08:53.073Z,15.40
2018-08-17T00:11:28.828Z,18.47
2018-08-17T00:14:04.399Z,17.57
2018-08-17T00:16:40.124Z,16.57
2018-08-17T00:19:15.877Z,16.23
2018-08-17T00:21:51.628Z,16.80
2018-08-17T00:24:26.961Z,17.67
2018-08-17T00:27:02.522Z,17.90
2018-08-17T00:29:37.996Z,18.07
2018-08-17T00:32:13.620Z,16.43
2018-08-17T00:34:49.044Z,16.60
2018-08-17T00:37:24.809Z,16.40
2018-08-17T00:40:00.201Z,17.57
2018-08-17T00:42:35.708Z,18.07
2018-08-17T00:45:11.000Z,17.00
2018-08-17T00:47:46.796Z,17.10
2018-08-17T00:50:22.273Z,18.17
2018-08-17T00:52:57.793Z,17.87
2018-08-17T00:55:33.039Z,17.23
2018-08-17T00:58:08.481Z,16.57
2018-08-17T01:00:43.672Z,16.57
2018-08-17T01:03:19.268Z,16.70
2018-08-17T01:05:54.484Z,15.80
2018-08-17T01:08:30.116Z,17.43
2018-08-17T01:11:05.582Z,16.60
2018-08-17T01:13:40.945Z,16.90
2018-08-17T01:16:16.803Z,17.50
2018-08-17T01:18:52.451Z,15.43
2018-08-17T01:21:27.851Z,18.33
2018-08-17T01:24:03.336Z,17.90
2018-08-17T01:26:38.584Z,16.53
2018-08-17T01:29:14.120Z,17.33
2018-08-17T01:31:49.344Z,16.27
2018-08-17T01:34:24.954Z,17.75
2018-08-17T01:37:00.373Z,18.30
2018-08-17T01:39:36.009Z,17.37
2018-08-17T01:42:11.500Z,18.03
2018-08-17T01:44:46.927Z,18.32
2018-08-17T01:47:22.324Z,20.03
2018-08-17T01:49:58.045Z,18.20
2018-08-17T01:52:34.048Z,18.30
2018-08-17T01:55:11.036Z,18.25
2018-08-17T01:57:46.318Z,17.60
2018-08-17T02:00:21.829Z,17.65
2018-08-17T02:02:57.179Z,17.80
2018-08-17T02:05:32.825Z,17.00
2018-08-17T02:08:08.027Z,19.07
2018-08-17T02:10:43.573Z,18.32
2018-08-17T02:13:18.954Z,18.82
2018-08-17T02:15:54.506Z,18.40
2018-08-17T02:18:30.365Z,18.77
2018-08-17T02:21:05.897Z,18.48
2018-08-17T02:23:41.436Z,19.82
2018-08-17T02:26:16.809Z,19.77
2018-08-17T02:28:52.288Z,18.60
2018-08-17T02:31:27.777Z,21.73
2018-08-17T02:34:03.224Z,19.15
2018-08-17T02:36:38.641Z,20.70
2018-08-17T02:39:13.842Z,21.12
2018-08-17T02:41:49.459Z,20.52
2018-08-17T02:44:24.930Z,19.73
2018-08-17T02:47:00.453Z,20.15
2018-08-17T02:49:36.105Z,20.15
2018-08-17T02:52:11.959Z,20.75
2018-08-17T02:54:47.558Z,21.05
2018-08-17T02:57:23.158Z,19.40
2018-08-17T02:59:58.613Z,21.40
2018-08-17T03:02:34.149Z,20.80
2018-08-17T03:05:09.662Z,19.65
2018-08-17T03:07:45.137Z,19.45
2018-08-17T03:10:20.356Z,20.05
2018-08-17T03:12:55.832Z,21.57
2018-08-17T03:15:31.253Z,20.72
2018-08-17T03:18:06.817Z,20.70
2018-08-17T03:20:42.141Z,20.45
2018-08-17T03:23:17.560Z,23.10
2018-08-17T03:25:52.844Z,22.05
2018-08-17T03:28:28.388Z,21.62
2018-08-17T03:31:03.645Z,21.37
2018-08-17T03:33:39.168Z,21.05
2018-08-17T03:36:14.504Z,21.30
2018-08-17T03:38:50.092Z,22.25
2018-08-17T03:41:25.513Z,21.80
2018-08-17T03:44:00.899Z,21.87
2018-08-17T03:46:36.230Z,20.68
2018-08-17T03:49:11.885Z,21.10
2018-08-17T03:51:47.242Z,22.10
2018-08-17T03:54:22.858Z,23.25
2018-08-17T03:56:58.097Z,21.15
2018-08-17T03:59:33.652Z,21.55
2018-08-17T04:02:09.109Z,19.80
2018-08-17T04:04:44.660Z,19.82
2018-08-17T04:07:19.998Z,18.62
2018-08-17T04:09:55.525Z,20.88
2018-08-17T04:12:30.864Z,20.72
2018-08-17T04:15:07.755Z,20.27
2018-08-17T04:17:43.169Z,19.32
2018-08-17T04:20:18.844Z,21.02
2018-08-17T04:22:54.340Z,20.48
2018-08-17T04:25:30.046Z,20.92
2018-08-17T04:28:05.528Z,20.20
2018-08-17T04:30:40.948Z,20.45
2018-08-17T04:33:16.304Z,23.77
2018-08-17T04:35:51.928Z,21.33
2018-08-17T04:38:27.388Z,21.65
2018-08-17T04:41:02.920Z,20.27
2018-08-17T04:43:38.391Z,20.23
2018-08-17T04:46:14.023Z,20.43
2018-08-17T04:48:49.748Z,19.33
2018-08-17T04:51:25.316Z,22.07
2018-08-17T04:54:00.645Z,19.10
2018-08-17T04:56:36.096Z,18.70
2018-08-17T04:59:11.324Z,17.10
2018-08-17T05:01:46.788Z,18.07
2018-08-17T05:04:22.289Z,18.50
2018-08-17T05:06:57.780Z,18.80
2018-08-17T05:09:32.988Z,17.53
2018-08-17T05:12:12.260Z,18.67
2018-08-17T05:14:47.699Z,19.40
2018-08-17T05:17:23.220Z,18.50
2018-08-17T05:19:58.430Z,17.63
2018-08-17T05:22:33.832Z,21.03
2018-08-17T05:25:09.173Z,19.83
2018-08-17T05:27:44.516Z,18.40
2018-08-17T05:30:19.773Z,17.27
2018-08-17T05:32:55.369Z,19.37
2018-08-17T05:35:30.588Z,19.40
2018-08-17T05:38:06.193Z,19.10
2018-08-17T05:40:41.682Z,18.57
2018-08-17T05:43:17.243Z,17.37
2018-08-17T05:45:52.712Z,18.87
2018-08-17T05:48:28.490Z,19.83
2018-08-17T05:51:03.924Z,19.87
2018-08-17T05:53:39.481Z,20.23
2018-08-17T05:56:14.829Z,21.80
2018-08-17T05:58:50.784Z,21.90
2018-08-17T06:01:26.082Z,20.80
2018-08-17T06:04:01.568Z,21.00
2018-08-17T06:06:36.885Z,21.20
2018-08-17T06:09:12.358Z,21.73
2018-08-17T06:11:47.838Z,21.00
2018-08-17T06:14:23.685Z,21.07
2018-08-17T06:16:59.141Z,19.67
2018-08-17T06:19:34.760Z,20.10
2018-08-17T06:22:15.398Z,18.60
2018-08-17T06:24:51.773Z,19.37
2018-08-17T06:27:27.169Z,18.97
2018-08-17T06:30:02.577Z,18.90
2018-08-17T06:32:37.992Z,19.10
2018-08-17T06:35:14.346Z,18.60
2018-08-17T06:37:49.755Z,20.30
2018-08-17T06:40:25.174Z,18.87
2018-08-17T06:43:00.637Z,18.20
2018-08-17T06:45:36.272Z,15.80
2018-08-17T06:48:12.577Z,17.10
2018-08-17T06:50:48.099Z,16.57
2018-08-17T06:53:23.428Z,14.50
2018-08-17T06:55:58.885Z,15.90
2018-08-17T06:58:34.350Z,16.53
2018-08-17T07:01:09.869Z,18.40
2018-08-17T07:03:45.192Z,16.60
2018-08-17T07:06:20.766Z,14.00
2018-08-17T07:08:56.292Z,14.50
2018-08-17T07:11:31.713Z,15.57
2018-08-17T07:14:08.085Z,17.97
2018-08-17T07:16:43.627Z,13.40
2018-08-17T07:19:19.069Z,12.83
2018-08-17T07:21:54.456Z,13.30
2018-08-17T07:24:29.680Z,17.47
2018-08-17T07:27:05.137Z,15.50
2018-08-17T07:29:40.504Z,12.30
2018-08-17T07:32:16.234Z,12.10
2018-08-17T07:34:51.758Z,15.37
2018-08-17T07:37:27.424Z,17.17
2018-08-17T07:40:02.869Z,11.73
2018-08-17T07:42:38.418Z,7.80
2018-08-17T07:45:13.744Z,8.40
2018-08-17T07:47:49.325Z,7.97
2018-08-17T07:50:24.977Z,7.67
2018-08-17T07:53:00.501Z,9.20
2018-08-17T07:55:35.737Z,10.83
2018-08-17T07:58:11.298Z,10.63
2018-08-17T08:00:46.604Z,6.13
2018-08-17T08:03:22.185Z,6.47
2018-08-17T08:05:57.537Z,6.47
2018-08-17T08:08:32.972Z,6.10
2018-08-17T08:11:08.735Z,4.90
2018-08-17T08:13:44.270Z,4.43
2018-08-17T08:16:19.597Z,4.53
2018-08-17T08:18:55.166Z,4.07
2018-08-17T08:21:30.656Z,4.37
2018-08-17T08:24:06.160Z,5.50
2018-08-17T08:26:41.534Z,5.47
2018-08-17T08:29:17.353Z,4.97
2018-08-17T08:31:52.644Z,3.57
2018-08-17T08:34:28.248Z,3.40
2018-08-17T08:37:03.744Z,3.23
2018-08-17T08:39:39.246Z,3.10
2018-08-17T08:42:15.277Z,3.60
2018-08-17T08:44:50.866Z,5.60
2018-08-17T08:47:26.121Z,4.13
2018-08-17T08:50:01.958Z,4.70
2018-08-17T08:52:37.971Z,3.47
2018-08-17T08:55:13.631Z,5.60
2018-08-17T08:57:48.982Z,4.77
2018-08-17T09:00:24.814Z,3.80
2018-08-17T09:03:00.379Z,4.10
2018-08-17T09:05:36.080Z,4.53
2018-08-17T09:08:11.443Z,3.67
2018-08-17T09:10:47.009Z,4.20
2018-08-17T09:13:22.312Z,3.60
2018-08-17T09:15:57.796Z,3.93
2018-08-17T09:18:33.533Z,4.17
2018-08-17T09:21:08.893Z,3.50
2018-08-17T09:23:44.397Z,4.03
2018-08-17T09:26:20.093Z,3.77
2018-08-17T09:28:55.289Z,4.13
2018-08-17T09:31:30.998Z,3.80
2018-08-17T09:34:06.473Z,2.93
2018-08-17T09:36:41.981Z,3.17
2018-08-17T09:39:17.483Z,3.37
2018-08-17T09:41:52.996Z,4.30
2018-08-17T09:44:28.425Z,3.13
2018-08-17T09:47:04.176Z,6.00
2018-08-17T09:49:39.701Z,5.87
2018-08-17T09:52:15.334Z,4.20
2018-08-17T09:54:50.696Z,7.10
2018-08-17T09:57:26.204Z,8.33
2018-08-17T10:00:01.778Z,4.70
2018-08-17T10:02:42.673Z,6.77
2018-08-17T10:05:23.421Z,5.27
2018-08-17T10:08:04.416Z,6.40
2018-08-17T10:10:39.797Z,5.33
2018-08-17T10:13:15.412Z,5.27
2018-08-17T10:15:50.825Z,5.20
2018-08-17T10:18:31.008Z,5.03
2018-08-17T10:21:06.363Z,5.13
2018-08-17T10:23:41.798Z,5.20
2018-08-17T10:26:17.345Z,4.57
2018-08-17T10:28:52.698Z,7.40
2018-08-17T10:31:27.970Z,5.00
2018-08-17T10:34:03.665Z,10.00
2018-08-17T10:36:39.133Z,5.00
2018-08-17T10:39:14.810Z,7.20
2018-08-17T10:41:50.170Z,7.53
2018-08-17T10:44:25.675Z,8.40
2018-08-17T10:47:06.678Z,6.47
2018-08-17T10:49:43.109Z,6.30
2018-08-17T10:52:18.644Z,6.27
2018-08-17T10:54:54.208Z,7.40
2018-08-17T10:57:29.727Z,5.90
2018-08-17T11:00:05.614Z,11.43
2018-08-17T11:02:41.546Z,13.17
2018-08-17T11:05:17.924Z,12.17
2018-08-17T11:07:53.347Z,7.57
2018-08-17T11:10:29.344Z,5.93
2018-08-17T11:13:07.672Z,9.10
2018-08-17T11:15:43.207Z,5.70
2018-08-17T11:18:18.993Z,6.90
2018-08-17T11:20:55.631Z,3.93
2018-08-17T11:23:31.176Z,6.23
2018-08-17T11:26:07.020Z,8.57
2018-08-17T11:28:42.344Z,5.23
2018-08-17T11:31:17.912Z,5.10
2018-08-17T11:33:53.340Z,5.70
2018-08-17T11:36:29.119Z,5.27
2018-08-17T11:39:05.666Z,6.77
2018-08-17T11:41:41.238Z,5.50
2018-08-17T11:44:16.749Z,5.23
2018-08-17T11:46:52.422Z,4.77
2018-08-17T11:49:28.321Z,8.47
2018-08-17T11:52:03.930Z,5.40
2018-08-17T11:54:39.187Z,5.20
2018-08-17T11:57:14.616Z,4.83
2018-08-17T11:59:55.133Z,4.67
2018-08-17T12:02:30.729Z,5.57
2018-08-17T12:05:06.488Z,6.90
2018-08-17T12:07:43.052Z,4.70
2018-08-17T12:10:18.305Z,5.07
2018-08-17T12:12:53.953Z,5.77
2018-08-17T12:15:29.521Z,6.20
2018-08-17T12:18:05.579Z,7.70
2018-08-17T12:20:40.840Z,12.70
2018-08-17T12:23:16.236Z,6.03
2018-08-17T12:25:56.267Z,9.53
2018-08-17T12:28:32.249Z,4.33
2018-08-17T12:31:07.648Z,7.23
2018-08-17T12:33:43.142Z,4.67
2018-08-17T12:36:19.841Z,4.43
2018-08-17T12:38:55.456Z,4.40
2018-08-17T12:41:32.749Z,6.67
2018-08-17T12:44:08.193Z,3.90
2018-08-17T12:46:43.620Z,3.50
2018-08-17T12:49:19.489Z,4.40
2018-08-17T12:51:54.945Z,3.70
2018-08-17T12:54:32.564Z,4.30
2018-08-17T12:57:07.949Z,4.27
2018-08-17T12:59:43.420Z,4.30
2018-08-17T13:02:18.867Z,3.90
2018-08-17T13:04:54.530Z,8.20
2018-08-17T13:07:30.072Z,4.53
2018-08-17T13:10:05.821Z,6.00
2018-08-17T13:12:41.249Z,5.40
2018-08-17T13:15:16.721Z,6.00
2018-08-17T13:17:52.014Z,5.40
2018-08-17T13:20:27.606Z,4.40
2018-08-17T13:23:03.239Z,5.67
2018-08-17T13:25:39.115Z,4.80
2018-08-17T13:28:14.336Z,4.03
2018-08-17T13:30:49.788Z,5.73
2018-08-17T13:33:25.174Z,4.43
2018-08-17T13:36:01.122Z,5.70
2018-08-17T13:38:36.560Z,6.57
2018-08-17T13:41:12.191Z,6.27
2018-08-17T13:43:47.450Z,5.90
2018-08-17T13:46:23.584Z,7.80
2018-08-17T13:48:59.148Z,6.03
2018-08-17T13:51:34.789Z,6.07
2018-08-17T13:54:10.225Z,7.10
2018-08-17T13:56:45.886Z,6.77
2018-08-17T13:59:21.233Z,7.83
2018-08-17T14:01:56.770Z,7.13
2018-08-17T14:04:32.281Z,8.27
2018-08-17T14:07:07.856Z,7.70
2018-08-17T14:09:43.430Z,7.63
2018-08-17T14:12:18.961Z,7.30
2018-08-17T14:14:54.441Z,8.20
2018-08-17T14:17:30.260Z,7.20
2018-08-17T14:20:09.729Z,6.87
2018-08-17T14:22:45.379Z,7.83
2018-08-17T14:25:20.849Z,7.73
2018-08-17T14:27:56.341Z,7.90
2018-08-17T14:30:31.814Z,7.10
2018-08-17T14:33:07.332Z,7.30
2018-08-17T14:35:42.760Z,7.33
2018-08-17T14:38:31.656Z,7.40
2018-08-17T14:41:06.948Z,8.07
2018-08-17T14:43:42.330Z,9.73
2018-08-17T14:46:17.797Z,9.33
2018-08-17T14:48:53.550Z,10.13
2018-08-17T14:51:29.124Z,8.87
2018-08-17T14:54:05.134Z,9.73
2018-08-17T14:56:40.400Z,10.40
2018-08-17T14:59:16.443Z,8.63
2018-08-17T15:01:51.764Z,11.13
2018-08-17T15:04:27.322Z,10.27
2018-08-17T15:07:02.733Z,9.07
2018-08-17T15:09:38.218Z,7.77
2018-08-17T15:12:13.416Z,6.10
2018-08-17T15:14:49.001Z,6.30
2018-08-17T15:17:24.224Z,7.67
2018-08-17T15:19:59.884Z,6.37
2018-08-17T15:22:35.064Z,4.17
2018-08-17T15:25:10.673Z,4.27
2018-08-17T15:27:46.020Z,4.90
2018-08-17T15:30:21.778Z,4.13
2018-08-17T15:32:57.152Z,4.30
2018-08-17T15:35:32.577Z,5.97
2018-08-17T15:38:07.977Z,6.93
2018-08-17T15:40:43.605Z,4.10
2018-08-17T15:43:19.811Z,5.20
2018-08-17T15:45:55.381Z,4.10
2018-08-17T15:48:40.968Z,4.30
2018-08-17T15:51:16.950Z,5.50
2018-08-17T15:53:52.436Z,5.83
2018-08-17T15:56:27.916Z,4.63
2018-08-17T15:59:03.377Z,3.33
2018-08-17T16:01:39.098Z,4.60
2018-08-17T16:04:14.596Z,4.60
2018-08-17T16:06:49.997Z,4.40
2018-08-17T16:09:25.201Z,5.00
2018-08-17T16:12:00.886Z,3.80
2018-08-17T16:14:36.043Z,3.97
2018-08-17T16:17:11.594Z,3.53
2018-08-17T16:19:46.741Z,5.00
2018-08-17T16:22:22.252Z,7.60
2018-08-17T16:24:57.488Z,9.47
2018-08-17T16:27:33.073Z,5.03
2018-08-17T16:30:11.245Z,3.50
2018-08-17T16:32:46.907Z,2.87
2018-08-17T16:35:22.090Z,3.90
2018-08-17T16:37:57.815Z,4.13
2018-08-17T16:40:37.360Z,4.07
2018-08-17T16:43:13.182Z,3.30
2018-08-17T16:45:48.722Z,4.43
2018-08-17T16:48:24.288Z,4.10
2018-08-17T16:50:59.725Z,3.27
2018-08-17T16:53:35.379Z,4.33
2018-08-17T16:56:10.889Z,3.00
2018-08-17T16:58:46.421Z,4.60
2018-08-17T17:01:21.740Z,7.20
2018-08-17T17:03:57.283Z,13.10
2018-08-17T17:06:32.674Z,2.97
2018-08-17T17:09:08.929Z,7.40
2018-08-17T17:11:44.245Z,2.70
2018-08-17T17:14:19.751Z,2.30
2018-08-17T17:16:55.250Z,4.00
2018-08-17T17:19:30.845Z,3.90
2018-08-17T17:22:06.337Z,2.33
2018-08-17T17:24:41.857Z,5.93
2018-08-17T17:27:20.343Z,2.33
2018-08-17T17:29:56.004Z,2.73
2018-08-17T17:32:31.489Z,2.87
2018-08-17T17:35:07.105Z,2.97
2018-08-17T17:37:42.688Z,2.33
2018-08-17T17:40:18.605Z,2.67
2018-08-17T17:42:53.836Z,3.77
2018-08-17T17:45:30.114Z,3.40
2018-08-17T17:48:05.781Z,3.73
2018-08-17T17:50:41.441Z,6.13
2018-08-17T17:53:16.860Z,3.50
2018-08-17T17:55:52.407Z,3.07
2018-08-17T17:58:27.719Z,4.83
2018-08-17T18:01:09.653Z,3.13
2018-08-17T18:03:46.554Z,3.10
2018-08-17T18:06:22.202Z,2.57
2018-08-17T18:09:00.779Z,4.40
2018-08-17T18:11:36.351Z,2.30
2018-08-17T18:14:11.805Z,2.47
2018-08-17T18:16:47.238Z,2.40
2018-08-17T18:19:22.964Z,3.70
2018-08-17T18:21:58.433Z,3.17
2018-08-17T18:24:33.864Z,2.60
2018-08-17T18:27:09.865Z,2.10
2018-08-17T18:29:45.322Z,3.13
2018-08-17T18:32:20.820Z,3.80
2018-08-17T18:34:56.305Z,5.03
2018-08-17T18:37:32.031Z,4.20
2018-08-17T18:40:09.382Z,6.13
2018-08-17T18:42:44.889Z,12.53
2018-08-17T18:45:20.272Z,4.00
2018-08-17T18:47:55.750Z,4.77
2018-08-17T18:50:31.398Z,5.97
2018-08-17T18:53:06.947Z,7.57
2018-08-17T18:55:42.336Z,11.20
2018-08-17T18:58:18.045Z,8.33
2018-08-17T19:00:53.322Z,5.40
2018-08-17T19:03:29.035Z,4.10
2018-08-17T19:06:04.305Z,12.80
2018-08-17T19:08:40.332Z,8.53
2018-08-17T19:11:15.514Z,5.93
2018-08-17T19:13:51.128Z,4.47
2018-08-17T19:16:26.692Z,17.10
2018-08-17T19:19:02.320Z,4.70
2018-08-17T19:21:37.548Z,5.30
2018-08-17T19:24:13.212Z,8.65
2018-08-17T19:26:48.588Z,5.05
2018-08-17T19:29:24.104Z,5.00
2018-08-17T19:32:01.781Z,9.90
2018-08-17T19:34:37.355Z,15.57
2018-08-17T19:37:12.852Z,3.42
2018-08-17T19:39:48.657Z,3.70
2018-08-17T19:42:23.861Z,5.93
2018-08-17T19:44:59.712Z,7.70
2018-08-17T19:47:35.124Z,10.23
2018-08-17T19:50:11.226Z,4.80
2018-08-17T19:52:46.692Z,19.52
2018-08-17T19:55:22.164Z,11.35
2018-08-17T19:57:57.514Z,5.30
2018-08-17T20:00:33.033Z,7.47
2018-08-17T20:03:08.453Z,9.28
2018-08-17T20:05:44.030Z,6.95
2018-08-17T20:08:19.288Z,6.40
2018-08-17T20:10:54.830Z,18.50
2018-08-17T20:13:30.169Z,19.30
2018-08-17T20:16:15.722Z,22.70
2018-08-17T20:18:51.261Z,9.58
2018-08-17T20:21:26.917Z,7.20
2018-08-17T20:24:02.405Z,10.78
2018-08-17T20:26:38.344Z,13.20
2018-08-17T20:29:13.467Z,10.95
2018-08-17T20:31:49.026Z,9.30
2018-08-17T20:34:24.393Z,12.30
2018-08-17T20:37:00.220Z,7.05
2018-08-17T20:39:37.696Z,6.90
2018-08-17T20:42:13.364Z,12.55
2018-08-17T20:44:48.686Z,5.47
2018-08-17T20:47:24.175Z,7.40
2018-08-17T20:49:59.909Z,8.00
2018-08-17T20:52:36.474Z,7.42
2018-08-17T20:55:11.829Z,6.65
2018-08-17T20:57:50.832Z,8.18
2018-08-17T21:00:28.123Z,10.63
2018-08-17T21:03:03.577Z,8.48
2018-08-17T21:05:38.876Z,8.38
2018-08-17T21:08:14.476Z,5.92
2018-08-17T21:10:49.676Z,8.68
2018-08-17T21:13:25.258Z,7.60
2018-08-17T21:16:00.716Z,9.05
2018-08-17T21:18:36.240Z,7.20
2018-08-17T21:21:11.724Z,6.37
2018-08-17T21:23:47.344Z,12.18
2018-08-17T21:26:22.558Z,5.78
2018-08-17T21:28:58.196Z,12.10
2018-08-17T21:31:33.684Z,9.93
2018-08-17T21:34:09.152Z,7.70
2018-08-17T21:36:44.629Z,8.23
2018-08-17T21:39:20.424Z,6.42
2018-08-17T21:41:55.868Z,6.62
2018-08-17T21:44:31.212Z,7.15
2018-08-17T21:47:07.017Z,8.58
2018-08-17T21:49:43.366Z,6.00
2018-08-17T21:52:23.970Z,7.85
2018-08-17T21:54:59.545Z,7.05
2018-08-17T21:57:35.106Z,6.70
2018-08-17T22:00:33.465Z,7.90
2018-08-17T22:03:36.644Z,13.85
2018-08-17T22:06:12.248Z,11.35
2018-08-17T22:08:47.625Z,10.48
2018-08-17T22:11:35.096Z,14.33
2018-08-17T22:14:10.420Z,10.20
2018-08-17T22:16:46.089Z,12.30
2018-08-17T22:19:37.816Z,8.68
2018-08-17T22:22:13.437Z,12.28
2018-08-17T22:24:52.373Z,20.10
2018-08-17T22:27:28.957Z,9.98
2018-08-17T22:30:05.251Z,10.63
2018-08-17T22:32:40.798Z,13.53
2018-08-17T22:35:16.589Z,11.33
2018-08-17T22:37:52.187Z,12.50
2018-08-17T22:40:27.981Z,13.80
2018-08-17T22:43:03.585Z,20.23
2018-08-17T22:45:38.937Z,14.47
2018-08-17T22:48:14.321Z,10.28
2018-08-17T22:50:49.809Z,9.63
2018-08-17T22:53:25.469Z,16.48
2018-08-17T22:56:00.865Z,13.40
2018-08-17T22:58:41.607Z,8.23
2018-08-17T23:01:18.892Z,9.68
2018-08-17T23:04:01.168Z,8.70
2018-08-17T23:06:36.560Z,8.18
2018-08-17T23:09:11.997Z,10.80
2018-08-17T23:11:47.405Z,8.25
2018-08-17T23:14:24.205Z,7.90
2018-08-17T23:16:59.490Z,7.58
2018-08-17T23:19:35.072Z,7.62
2018-08-17T23:22:10.317Z,7.58
2018-08-17T23:24:45.828Z,6.70
2018-08-17T23:27:21.090Z,8.18
2018-08-17T23:29:56.533Z,7.20
2018-08-17T23:32:31.825Z,8.05
2018-08-17T23:35:07.756Z,7.05
2018-08-17T23:37:43.190Z,8.00
2018-08-17T23:40:18.936Z,6.92
2018-08-17T23:42:54.393Z,7.05
2018-08-17T23:45:30.160Z,7.92
2018-08-17T23:48:05.586Z,7.20
2018-08-17T23:50:41.122Z,6.65
2018-08-17T23:53:16.639Z,7.20
2018-08-17T23:55:52.321Z,7.25
2018-08-17T23:58:27.596Z,6.80
